Wilson Lahn — 8PUO — position and weather

sailwx.info

Track history (hours):
 
Tides and Currents Weather Stations Pressure Air Temp Water Temp Dewpoint Dewpoint Depression Visibility Wind Speed Wind Dir Waves Ship Positions

Wilson Lahn

Last reported at 2017-Jan-20 20:14 UTC. Time now 2017-Jan-21 06:20 UTC.
Position N 57°49' E 006°23'.

Length 83 m; draft 4.3 m.

Type: Cargo ship. MMSI: 314259000.

Date/timePositionNaut miles runAvg speedWind from/ knotsBaromVisibWave heightAir tempDewpointWater temp
2017-Jan-20 20:14N 57°49' E 006°23'6 9.1
2017-Jan-20 19:33N 57°55' E 006°26'9 9.0
2017-Jan-20 18:32N 58°04' E 006°29'10 0.5
2017-Jan-19 22:29N 58°12' E 006°39'1011.2
2017-Jan-19 21:33N 58°12' E 006°20'1010.2
2017-Jan-19 20:33N 58°17' E 006°04'1110.9
2017-Jan-19 19:33N 58°25' E 005°49'1010.4
2017-Jan-19 18:33N 58°33' E 005°36'1010.4
2017-Jan-19 17:34N 58°42' E 005°27'1110.6
2017-Jan-19 16:33N 58°53' E 005°22'1010.2
2017-Jan-19 15:33N 59°03' E 005°19'1010.5
2017-Jan-19 14:33N 59°13' E 005°20'237 6.7
2017-Jan-18 03:24N 63°06' E 006°54'4 5.1
2017-Jan-18 02:33N 63°08' E 007°01'6 6.2
2017-Jan-18 01:34N 63°12' E 007°13'7 7.4
2017-Jan-18 00:33N 63°14' E 007°28'9 9.0
2017-Jan-17 23:33N 63°13' E 007°48'9 9.4
2017-Jan-17 22:33N 63°16' E 008°08'3010.0
2017-Jan-17 19:33N 63°30' E 009°07'9 9.4
2017-Jan-17 18:33N 63°39' E 009°16'  
2017-Jan-15 08:31N 63°44' E 009°24'9 9.2
2017-Jan-15 07:33N 63°36' E 009°16'10 9.7
2017-Jan-15 06:33N 63°29' E 009°01'3110.1
2017-Jan-15 03:32N 63°14' E 008°01'9 9.4
2017-Jan-15 02:33N 63°14' E 007°41'9 9.1
2017-Jan-15 01:33N 63°14' E 007°21'10 9.6
2017-Jan-15 00:33N 63°08' E 007°03'202 6.7
2017-Jan-13 18:19N 59°51' E 005°33'6 8.3
2017-Jan-13 17:33N 59°45' E 005°31'9 8.8
2017-Jan-13 16:28N 59°38' E 005°18'25 8.5
2017-Jan-13 13:33N 59°13' E 005°21'9 9.5
2017-Jan-13 12:33N 59°03' E 005°21'9 8.7
2017-Jan-13 11:33N 58°55' E 005°21'8 8.4
2017-Jan-13 10:34N 58°46' E 005°24'8 8.4
2017-Jan-13 09:34N 58°39' E 005°30'8 8.3
2017-Jan-13 08:33N 58°31' E 005°36'8 8.3
2017-Jan-13 07:33N 58°25' E 005°47'8 8.5
2017-Jan-13 06:33N 58°19' E 005°59'7 7.4
2017-Jan-13 05:33N 58°14' E 006°09'8 7.5
2017-Jan-13 04:33N 58°09' E 006°20'8 7.6
2017-Jan-13 03:33N 58°04' E 006°31'7 7.1
2017-Jan-13 02:33N 58°01' E 006°43'7 7.0
2017-Jan-13 01:33N 57°58' E 006°55'9 7.1
2017-Jan-13 00:20N 57°56' E 007°11'39 8.1
2017-Jan-12 19:33N 58°04' E 008°22'8 7.6
2017-Jan-12 18:33N 58°05' E 008°36'7 6.7
2017-Jan-12 17:33N 58°05' E 008°49'7 6.6
2017-Jan-12 16:32N 58°03' E 009°01'51 4.5
2017-Jan-12 05:07N 57°49' E 010°33'2 3.0
2017-Jan-12 04:33N 57°49' E 010°37'3 3.3
2017-Jan-12 03:33N 57°49' E 010°43'4 4.1
2017-Jan-12 02:34N 57°47' E 010°50'6 5.5
2017-Jan-12 01:33N 57°43' E 010°57'6 6.4
2017-Jan-12 00:34N 57°39' E 011°06'7 6.6
2017-Jan-11 23:33N 57°34' E 011°15'6 6.3
2017-Jan-11 22:33N 57°30' E 011°23'6 5.8
2017-Jan-11 21:33N 57°25' E 011°28'6 6.3
2017-Jan-11 20:34N 57°19' E 011°33'7 6.7
2017-Jan-11 19:34N 57°13' E 011°37'8 7.5
2017-Jan-11 18:33N 57°06' E 011°42'51 8.5
2017-Jan-11 12:31N 56°16' E 012°10'8 8.6
2017-Jan-11 11:33N 56°12' E 012°22'1212.5
2017-Jan-11 10:34N 56°04' E 012°39'1111.4
2017-Jan-11 09:33N 55°53' E 012°44'1211.6
2017-Jan-11 08:33N 55°41' E 012°41'1211.7
2017-Jan-11 07:33N 55°29' E 012°43'1110.7
2017-Jan-11 06:34N 55°19' E 012°42'9 8.7
2017-Jan-11 05:34N 55°15' E 012°55'9 8.9
2017-Jan-11 04:34N 55°09' E 013°07'  
Track history (hours):
 
Tides and Currents Weather Stations Pressure Air Temp Water Temp Dewpoint Dewpoint Depression Visibility Wind Speed Wind Dir Waves Ship Positions

Wilson Lahn

Last reported at 2017-Jan-20 20:14 UTC. Time now 2017-Jan-21 06:20 UTC.
Position N 57°49' E 006°23'.

Length 83 m; draft 4.3 m.

Type: Cargo ship. MMSI: 314259000.

Date/timePositionNaut miles runAvg speedWind from/ knotsBaromVisibWave heightAir tempDewpointWater temp
2017-Jan-20 20:14N 57°49' E 006°23'6 9.1
2017-Jan-20 19:33N 57°55' E 006°26'9 9.0
2017-Jan-20 18:32N 58°04' E 006°29'10 0.5
2017-Jan-19 22:29N 58°12' E 006°39'1011.2
2017-Jan-19 21:33N 58°12' E 006°20'1010.2
2017-Jan-19 20:33N 58°17' E 006°04'1110.9
2017-Jan-19 19:33N 58°25' E 005°49'1010.4
2017-Jan-19 18:33N 58°33' E 005°36'1010.4
2017-Jan-19 17:34N 58°42' E 005°27'1110.6
2017-Jan-19 16:33N 58°53' E 005°22'1010.2
2017-Jan-19 15:33N 59°03' E 005°19'1010.5
2017-Jan-19 14:33N 59°13' E 005°20'237 6.7
2017-Jan-18 03:24N 63°06' E 006°54'4 5.1
2017-Jan-18 02:33N 63°08' E 007°01'6 6.2
2017-Jan-18 01:34N 63°12' E 007°13'7 7.4
2017-Jan-18 00:33N 63°14' E 007°28'9 9.0
2017-Jan-17 23:33N 63°13' E 007°48'9 9.4
2017-Jan-17 22:33N 63°16' E 008°08'3010.0
2017-Jan-17 19:33N 63°30' E 009°07'9 9.4
2017-Jan-17 18:33N 63°39' E 009°16'  
2017-Jan-15 08:31N 63°44' E 009°24'9 9.2
2017-Jan-15 07:33N 63°36' E 009°16'10 9.7
2017-Jan-15 06:33N 63°29' E 009°01'3110.1
2017-Jan-15 03:32N 63°14' E 008°01'9 9.4
2017-Jan-15 02:33N 63°14' E 007°41'9 9.1
2017-Jan-15 01:33N 63°14' E 007°21'10 9.6
2017-Jan-15 00:33N 63°08' E 007°03'202 6.7
2017-Jan-13 18:19N 59°51' E 005°33'6 8.3
2017-Jan-13 17:33N 59°45' E 005°31'9 8.8
2017-Jan-13 16:28N 59°38' E 005°18'25 8.5
2017-Jan-13 13:33N 59°13' E 005°21'9 9.5
2017-Jan-13 12:33N 59°03' E 005°21'9 8.7
2017-Jan-13 11:33N 58°55' E 005°21'8 8.4
2017-Jan-13 10:34N 58°46' E 005°24'8 8.4
2017-Jan-13 09:34N 58°39' E 005°30'8 8.3
2017-Jan-13 08:33N 58°31' E 005°36'8 8.3
2017-Jan-13 07:33N 58°25' E 005°47'8 8.5
2017-Jan-13 06:33N 58°19' E 005°59'7 7.4
2017-Jan-13 05:33N 58°14' E 006°09'8 7.5
2017-Jan-13 04:33N 58°09' E 006°20'8 7.6
2017-Jan-13 03:33N 58°04' E 006°31'7 7.1
2017-Jan-13 02:33N 58°01' E 006°43'7 7.0
2017-Jan-13 01:33N 57°58' E 006°55'9 7.1
2017-Jan-13 00:20N 57°56' E 007°11'39 8.1
2017-Jan-12 19:33N 58°04' E 008°22'8 7.6
2017-Jan-12 18:33N 58°05' E 008°36'7 6.7
2017-Jan-12 17:33N 58°05' E 008°49'7 6.6
2017-Jan-12 16:32N 58°03' E 009°01'51 4.5
2017-Jan-12 05:07N 57°49' E 010°33'2 3.0
2017-Jan-12 04:33N 57°49' E 010°37'3 3.3
2017-Jan-12 03:33N 57°49' E 010°43'4 4.1
2017-Jan-12 02:34N 57°47' E 010°50'6 5.5
2017-Jan-12 01:33N 57°43' E 010°57'6 6.4
2017-Jan-12 00:34N 57°39' E 011°06'7 6.6
2017-Jan-11 23:33N 57°34' E 011°15'6 6.3
2017-Jan-11 22:33N 57°30' E 011°23'6 5.8
2017-Jan-11 21:33N 57°25' E 011°28'6 6.3
2017-Jan-11 20:34N 57°19' E 011°33'7 6.7
2017-Jan-11 19:34N 57°13' E 011°37'8 7.5
2017-Jan-11 18:33N 57°06' E 011°42'51 8.5
2017-Jan-11 12:31N 56°16' E 012°10'8 8.6
2017-Jan-11 11:33N 56°12' E 012°22'1212.5
2017-Jan-11 10:34N 56°04' E 012°39'1111.4
2017-Jan-11 09:33N 55°53' E 012°44'1211.6
2017-Jan-11 08:33N 55°41' E 012°41'1211.7
2017-Jan-11 07:33N 55°29' E 012°43'1110.7
2017-Jan-11 06:34N 55°19' E 012°42'9 8.7
2017-Jan-11 05:34N 55°15' E 012°55'9 8.9
2017-Jan-11 04:34N 55°09' E 013°07'  

Dump ship's entire track history